sensor_id;sensor_type;location;lat;lon;timestamp;P1;durP1;ratioP1;P2;durP2;ratioP2
79249;SDS011;68679;51.030;7.584;2023-06-01T00:01:45;6.77;;;2.57;;
79249;SDS011;68679;51.030;7.584;2023-06-01T00:04:11;7.05;;;2.78;;
79249;SDS011;68679;51.030;7.584;2023-06-01T00:06:38;7.25;;;2.67;;
79249;SDS011;68679;51.030;7.584;2023-06-01T00:09:03;6.03;;;2.90;;
79249;SDS011;68679;51.030;7.584;2023-06-01T00:11:29;4.43;;;2.30;;
79249;SDS011;68679;51.030;7.584;2023-06-01T00:13:54;6.97;;;2.80;;
79249;SDS011;68679;51.030;7.584;2023-06-01T00:16:19;7.80;;;2.50;;
79249;SDS011;68679;51.030;7.584;2023-06-01T00:18:45;5.60;;;3.00;;
79249;SDS011;68679;51.030;7.584;2023-06-01T00:21:10;8.95;;;2.75;;
79249;SDS011;68679;51.030;7.584;2023-06-01T00:23:36;6.97;;;2.78;;
79249;SDS011;68679;51.030;7.584;2023-06-01T00:26:05;7.28;;;2.42;;
79249;SDS011;68679;51.030;7.584;2023-06-01T00:28:31;5.03;;;2.60;;
79249;SDS011;68679;51.030;7.584;2023-06-01T00:30:56;8.50;;;2.67;;
79249;SDS011;68679;51.030;7.584;2023-06-01T00:33:22;5.67;;;2.63;;
79249;SDS011;68679;51.030;7.584;2023-06-01T00:35:47;8.50;;;2.90;;
79249;SDS011;68679;51.030;7.584;2023-06-01T00:38:12;4.07;;;2.10;;
79249;SDS011;68679;51.030;7.584;2023-06-01T00:40:38;7.20;;;3.07;;
79249;SDS011;68679;51.030;7.584;2023-06-01T00:43:03;9.63;;;2.60;;
79249;SDS011;68679;51.030;7.584;2023-06-01T00:45:29;6.60;;;3.13;;
79249;SDS011;68679;51.030;7.584;2023-06-01T00:47:55;4.38;;;2.25;;
79249;SDS011;68679;51.030;7.584;2023-06-01T00:50:20;5.95;;;2.58;;
79249;SDS011;68679;51.030;7.584;2023-06-01T00:52:46;6.50;;;2.70;;
79249;SDS011;68679;51.030;7.584;2023-06-01T00:55:14;8.30;;;2.58;;
79249;SDS011;68679;51.030;7.584;2023-06-01T00:57:39;6.20;;;2.53;;
79249;SDS011;68679;51.030;7.584;2023-06-01T01:00:07;6.65;;;2.60;;
79249;SDS011;68679;51.030;7.584;2023-06-01T01:02:37;6.97;;;2.58;;
79249;SDS011;68679;51.030;7.584;2023-06-01T01:05:09;11.57;;;3.60;;
79249;SDS011;68679;51.030;7.584;2023-06-01T01:07:38;8.43;;;3.25;;
79249;SDS011;68679;51.030;7.584;2023-06-01T01:10:35;6.95;;;2.63;;
79249;SDS011;68679;51.030;7.584;2023-06-01T01:13:06;9.02;;;3.28;;
79249;SDS011;68679;51.030;7.584;2023-06-01T01:15:46;7.70;;;2.88;;
79249;SDS011;68679;51.030;7.584;2023-06-01T01:21:11;5.72;;;2.65;;
79249;SDS011;68679;51.030;7.584;2023-06-01T01:26:52;6.03;;;2.78;;
79249;SDS011;68679;51.030;7.584;2023-06-01T01:31:56;5.30;;;3.05;;
79249;SDS011;68679;51.030;7.584;2023-06-01T01:34:25;5.80;;;2.40;;
79249;SDS011;68679;51.030;7.584;2023-06-01T01:36:53;5.10;;;2.63;;
79249;SDS011;68679;51.030;7.584;2023-06-01T01:39:19;8.23;;;2.80;;
79249;SDS011;68679;51.030;7.584;2023-06-01T01:41:44;5.87;;;3.10;;
79249;SDS011;68679;51.030;7.584;2023-06-01T01:44:09;8.20;;;2.70;;
79249;SDS011;68679;51.030;7.584;2023-06-01T01:46:44;11.97;;;2.90;;
79249;SDS011;68679;51.030;7.584;2023-06-01T01:49:16;5.63;;;3.00;;
79249;SDS011;68679;51.030;7.584;2023-06-01T01:54:28;5.55;;;3.20;;
79249;SDS011;68679;51.030;7.584;2023-06-01T01:56:56;9.05;;;3.10;;
79249;SDS011;68679;51.030;7.584;2023-06-01T01:59:23;5.65;;;2.75;;
79249;SDS011;68679;51.030;7.584;2023-06-01T02:01:49;6.43;;;2.30;;
79249;SDS011;68679;51.030;7.584;2023-06-01T02:04:15;7.68;;;2.70;;
79249;SDS011;68679;51.030;7.584;2023-06-01T02:06:40;6.07;;;2.50;;
79249;SDS011;68679;51.030;7.584;2023-06-01T02:09:05;10.83;;;2.83;;
79249;SDS011;68679;51.030;7.584;2023-06-01T02:11:34;6.55;;;2.78;;
79249;SDS011;68679;51.030;7.584;2023-06-01T02:14:00;10.57;;;2.90;;
79249;SDS011;68679;51.030;7.584;2023-06-01T02:16:25;5.00;;;2.80;;
79249;SDS011;68679;51.030;7.584;2023-06-01T02:18:51;9.07;;;3.00;;
79249;SDS011;68679;51.030;7.584;2023-06-01T02:21:16;4.35;;;2.50;;
79249;SDS011;68679;51.030;7.584;2023-06-01T02:23:42;9.70;;;2.80;;
79249;SDS011;68679;51.030;7.584;2023-06-01T02:26:09;9.47;;;3.13;;
79249;SDS011;68679;51.030;7.584;2023-06-01T02:28:39;6.57;;;2.53;;
79249;SDS011;68679;51.030;7.584;2023-06-01T02:31:05;5.15;;;2.50;;
79249;SDS011;68679;51.030;7.584;2023-06-01T02:33:31;8.85;;;2.75;;
79249;SDS011;68679;51.030;7.584;2023-06-01T02:35:57;5.28;;;2.60;;
79249;SDS011;68679;51.030;7.584;2023-06-01T02:38:23;12.32;;;3.17;;
79249;SDS011;68679;51.030;7.584;2023-06-01T02:40:48;5.10;;;2.80;;
79249;SDS011;68679;51.030;7.584;2023-06-01T02:43:13;6.77;;;2.60;;
79249;SDS011;68679;51.030;7.584;2023-06-01T02:45:39;6.40;;;2.53;;
79249;SDS011;68679;51.030;7.584;2023-06-01T02:48:04;8.77;;;2.40;;
79249;SDS011;68679;51.030;7.584;2023-06-01T02:50:30;8.50;;;3.17;;
79249;SDS011;68679;51.030;7.584;2023-06-01T02:52:55;5.50;;;2.87;;
79249;SDS011;68679;51.030;7.584;2023-06-01T02:55:21;6.63;;;2.70;;
79249;SDS011;68679;51.030;7.584;2023-06-01T02:57:46;11.03;;;3.17;;
79249;SDS011;68679;51.030;7.584;2023-06-01T03:00:11;15.93;;;3.13;;
79249;SDS011;68679;51.030;7.584;2023-06-01T03:02:43;8.40;;;3.45;;
79249;SDS011;68679;51.030;7.584;2023-06-01T03:05:09;5.60;;;2.60;;
79249;SDS011;68679;51.030;7.584;2023-06-01T03:10:04;5.80;;;2.43;;
79249;SDS011;68679;51.030;7.584;2023-06-01T03:12:31;10.38;;;2.63;;
79249;SDS011;68679;51.030;7.584;2023-06-01T03:14:57;9.95;;;3.10;;
79249;SDS011;68679;51.030;7.584;2023-06-01T03:17:22;5.40;;;2.43;;
79249;SDS011;68679;51.030;7.584;2023-06-01T03:19:47;8.03;;;3.00;;
79249;SDS011;68679;51.030;7.584;2023-06-01T03:22:12;7.83;;;2.80;;
79249;SDS011;68679;51.030;7.584;2023-06-01T03:24:38;8.37;;;3.00;;
79249;SDS011;68679;51.030;7.584;2023-06-01T03:27:06;8.23;;;2.65;;
79249;SDS011;68679;51.030;7.584;2023-06-01T03:29:31;7.90;;;2.85;;
79249;SDS011;68679;51.030;7.584;2023-06-01T03:31:57;8.93;;;2.93;;
79249;SDS011;68679;51.030;7.584;2023-06-01T03:34:22;9.70;;;3.27;;
79249;SDS011;68679;51.030;7.584;2023-06-01T03:36:47;7.33;;;2.93;;
79249;SDS011;68679;51.030;7.584;2023-06-01T03:39:13;7.25;;;2.90;;
79249;SDS011;68679;51.030;7.584;2023-06-01T03:41:41;7.28;;;3.25;;
79249;SDS011;68679;51.030;7.584;2023-06-01T03:44:07;7.78;;;3.17;;
79249;SDS011;68679;51.030;7.584;2023-06-01T03:46:32;9.30;;;2.70;;
79249;SDS011;68679;51.030;7.584;2023-06-01T03:48:57;8.10;;;2.80;;
79249;SDS011;68679;51.030;7.584;2023-06-01T03:51:23;9.20;;;3.27;;
79249;SDS011;68679;51.030;7.584;2023-06-01T03:53:48;8.75;;;3.22;;
79249;SDS011;68679;51.030;7.584;2023-06-01T03:56:14;6.70;;;2.85;;
79249;SDS011;68679;51.030;7.584;2023-06-01T03:58:40;6.70;;;2.58;;
79249;SDS011;68679;51.030;7.584;2023-06-01T04:01:05;9.73;;;2.70;;
79249;SDS011;68679;51.030;7.584;2023-06-01T04:03:31;7.15;;;2.90;;
79249;SDS011;68679;51.030;7.584;2023-06-01T04:05:56;7.32;;;3.03;;
79249;SDS011;68679;51.030;7.584;2023-06-01T04:08:25;10.95;;;2.90;;
79249;SDS011;68679;51.030;7.584;2023-06-01T04:10:51;8.15;;;3.42;;
79249;SDS011;68679;51.030;7.584;2023-06-01T04:13:17;7.93;;;2.95;;
79249;SDS011;68679;51.030;7.584;2023-06-01T04:15:42;10.50;;;3.27;;
79249;SDS011;68679;51.030;7.584;2023-06-01T04:18:07;6.68;;;3.25;;
79249;SDS011;68679;51.030;7.584;2023-06-01T04:20:33;9.00;;;3.57;;
79249;SDS011;68679;51.030;7.584;2023-06-01T04:22:59;9.48;;;3.03;;
79249;SDS011;68679;51.030;7.584;2023-06-01T04:25:25;9.07;;;3.00;;
79249;SDS011;68679;51.030;7.584;2023-06-01T04:27:50;7.82;;;3.20;;
79249;SDS011;68679;51.030;7.584;2023-06-01T04:30:19;12.05;;;3.15;;
79249;SDS011;68679;51.030;7.584;2023-06-01T04:32:46;6.45;;;2.75;;
79249;SDS011;68679;51.030;7.584;2023-06-01T04:35:12;7.00;;;2.60;;
79249;SDS011;68679;51.030;7.584;2023-06-01T04:37:39;8.18;;;3.08;;
79249;SDS011;68679;51.030;7.584;2023-06-01T04:40:06;12.43;;;2.92;;
79249;SDS011;68679;51.030;7.584;2023-06-01T04:42:36;6.63;;;2.83;;
79249;SDS011;68679;51.030;7.584;2023-06-01T04:45:03;10.82;;;2.88;;
79249;SDS011;68679;51.030;7.584;2023-06-01T04:47:31;12.25;;;3.10;;
79249;SDS011;68679;51.030;7.584;2023-06-01T04:49:57;5.37;;;2.90;;
79249;SDS011;68679;51.030;7.584;2023-06-01T04:52:22;13.43;;;2.88;;
79249;SDS011;68679;51.030;7.584;2023-06-01T04:54:48;10.20;;;2.63;;
79249;SDS011;68679;51.030;7.584;2023-06-01T04:57:13;8.75;;;2.60;;
79249;SDS011;68679;51.030;7.584;2023-06-01T04:59:42;12.63;;;3.03;;
79249;SDS011;68679;51.030;7.584;2023-06-01T05:02:07;9.98;;;2.80;;
79249;SDS011;68679;51.030;7.584;2023-06-01T05:04:33;7.82;;;2.65;;
79249;SDS011;68679;51.030;7.584;2023-06-01T05:06:58;10.47;;;3.10;;
79249;SDS011;68679;51.030;7.584;2023-06-01T05:09:23;7.63;;;3.30;;
79249;SDS011;68679;51.030;7.584;2023-06-01T05:11:50;11.32;;;3.15;;
79249;SDS011;68679;51.030;7.584;2023-06-01T05:14:15;9.03;;;3.00;;
79249;SDS011;68679;51.030;7.584;2023-06-01T05:16:40;9.27;;;3.10;;
79249;SDS011;68679;51.030;7.584;2023-06-01T05:19:06;9.50;;;3.10;;
79249;SDS011;68679;51.030;7.584;2023-06-01T05:21:31;14.33;;;3.40;;
79249;SDS011;68679;51.030;7.584;2023-06-01T05:23:57;11.60;;;5.50;;
79249;SDS011;68679;51.030;7.584;2023-06-01T05:26:22;9.80;;;4.25;;
79249;SDS011;68679;51.030;7.584;2023-06-01T05:28:48;17.63;;;3.75;;
79249;SDS011;68679;51.030;7.584;2023-06-01T05:31:13;13.17;;;3.83;;
79249;SDS011;68679;51.030;7.584;2023-06-01T05:33:38;9.57;;;3.43;;
79249;SDS011;68679;51.030;7.584;2023-06-01T05:36:04;10.20;;;3.60;;
79249;SDS011;68679;51.030;7.584;2023-06-01T05:38:29;9.80;;;3.25;;
79249;SDS011;68679;51.030;7.584;2023-06-01T05:40:55;10.03;;;3.50;;
79249;SDS011;68679;51.030;7.584;2023-06-01T05:43:20;11.37;;;3.73;;
79249;SDS011;68679;51.030;7.584;2023-06-01T05:45:45;14.75;;;3.30;;
79249;SDS011;68679;51.030;7.584;2023-06-01T05:48:11;15.05;;;3.80;;
79249;SDS011;68679;51.030;7.584;2023-06-01T05:50:38;10.80;;;3.90;;
79249;SDS011;68679;51.030;7.584;2023-06-01T05:53:05;9.82;;;3.50;;
79249;SDS011;68679;51.030;7.584;2023-06-01T05:55:30;12.17;;;3.93;;
79249;SDS011;68679;51.030;7.584;2023-06-01T05:57:56;8.77;;;3.38;;
79249;SDS011;68679;51.030;7.584;2023-06-01T06:00:21;13.60;;;3.40;;
79249;SDS011;68679;51.030;7.584;2023-06-01T06:02:47;8.98;;;3.20;;
79249;SDS011;68679;51.030;7.584;2023-06-01T06:05:12;8.40;;;3.45;;
79249;SDS011;68679;51.030;7.584;2023-06-01T06:07:38;12.40;;;4.10;;
79249;SDS011;68679;51.030;7.584;2023-06-01T06:10:03;10.50;;;3.22;;
79249;SDS011;68679;51.030;7.584;2023-06-01T06:12:29;9.40;;;3.17;;
79249;SDS011;68679;51.030;7.584;2023-06-01T06:14:55;7.82;;;3.20;;
79249;SDS011;68679;51.030;7.584;2023-06-01T06:17:20;8.93;;;4.00;;
79249;SDS011;68679;51.030;7.584;2023-06-01T06:19:46;8.65;;;3.20;;
79249;SDS011;68679;51.030;7.584;2023-06-01T06:22:12;7.32;;;3.35;;
79249;SDS011;68679;51.030;7.584;2023-06-01T06:24:38;7.75;;;3.42;;
79249;SDS011;68679;51.030;7.584;2023-06-01T06:27:03;7.70;;;3.10;;
79249;SDS011;68679;51.030;7.584;2023-06-01T06:29:29;11.05;;;3.47;;
79249;SDS011;68679;51.030;7.584;2023-06-01T06:31:55;8.95;;;3.83;;
79249;SDS011;68679;51.030;7.584;2023-06-01T06:34:20;7.93;;;3.67;;
79249;SDS011;68679;51.030;7.584;2023-06-01T06:36:45;6.37;;;3.13;;
79249;SDS011;68679;51.030;7.584;2023-06-01T06:39:11;7.85;;;3.53;;
79249;SDS011;68679;51.030;7.584;2023-06-01T06:41:37;7.20;;;3.38;;
79249;SDS011;68679;51.030;7.584;2023-06-01T06:44:02;11.10;;;3.40;;
79249;SDS011;68679;51.030;7.584;2023-06-01T06:46:28;7.57;;;3.83;;
79249;SDS011;68679;51.030;7.584;2023-06-01T06:48:53;6.57;;;3.17;;
79249;SDS011;68679;51.030;7.584;2023-06-01T06:51:19;6.85;;;3.20;;
79249;SDS011;68679;51.030;7.584;2023-06-01T06:53:44;7.82;;;3.22;;
79249;SDS011;68679;51.030;7.584;2023-06-01T06:56:10;14.05;;;3.58;;
79249;SDS011;68679;51.030;7.584;2023-06-01T06:58:35;12.25;;;4.15;;
79249;SDS011;68679;51.030;7.584;2023-06-01T07:01:01;9.88;;;4.10;;
79249;SDS011;68679;51.030;7.584;2023-06-01T07:03:29;10.52;;;4.28;;
79249;SDS011;68679;51.030;7.584;2023-06-01T07:05:55;9.05;;;4.05;;
79249;SDS011;68679;51.030;7.584;2023-06-01T07:08:20;11.87;;;4.93;;
79249;SDS011;68679;51.030;7.584;2023-06-01T07:10:46;8.83;;;4.60;;
79249;SDS011;68679;51.030;7.584;2023-06-01T07:13:11;11.55;;;4.05;;
79249;SDS011;68679;51.030;7.584;2023-06-01T07:15:36;8.20;;;4.70;;
79249;SDS011;68679;51.030;7.584;2023-06-01T07:18:02;9.80;;;4.73;;
79249;SDS011;68679;51.030;7.584;2023-06-01T07:20:27;10.70;;;4.97;;
79249;SDS011;68679;51.030;7.584;2023-06-01T07:22:52;10.03;;;5.10;;
79249;SDS011;68679;51.030;7.584;2023-06-01T07:25:18;10.10;;;5.37;;
79249;SDS011;68679;51.030;7.584;2023-06-01T07:27:43;11.00;;;4.90;;
79249;SDS011;68679;51.030;7.584;2023-06-01T07:30:09;10.23;;;4.87;;
79249;SDS011;68679;51.030;7.584;2023-06-01T07:32:35;10.30;;;4.97;;
79249;SDS011;68679;51.030;7.584;2023-06-01T07:35:01;11.10;;;5.38;;
79249;SDS011;68679;51.030;7.584;2023-06-01T07:37:27;9.52;;;5.10;;
79249;SDS011;68679;51.030;7.584;2023-06-01T07:39:53;11.18;;;5.88;;
79249;SDS011;68679;51.030;7.584;2023-06-01T07:42:19;13.80;;;7.70;;
79249;SDS011;68679;51.030;7.584;2023-06-01T07:44:45;13.02;;;6.03;;
79249;SDS011;68679;51.030;7.584;2023-06-01T07:47:11;10.77;;;6.38;;
79249;SDS011;68679;51.030;7.584;2023-06-01T07:49:36;12.27;;;6.07;;
79249;SDS011;68679;51.030;7.584;2023-06-01T07:52:02;11.43;;;6.68;;
79249;SDS011;68679;51.030;7.584;2023-06-01T07:54:28;13.95;;;6.53;;
79249;SDS011;68679;51.030;7.584;2023-06-01T07:56:53;12.70;;;7.67;;
79249;SDS011;68679;51.030;7.584;2023-06-01T07:59:19;14.77;;;6.73;;
79249;SDS011;68679;51.030;7.584;2023-06-01T08:01:49;11.25;;;6.53;;
79249;SDS011;68679;51.030;7.584;2023-06-01T08:04:16;10.55;;;5.47;;
79249;SDS011;68679;51.030;7.584;2023-06-01T08:06:43;10.55;;;5.88;;
79249;SDS011;68679;51.030;7.584;2023-06-01T08:09:08;11.40;;;6.00;;
79249;SDS011;68679;51.030;7.584;2023-06-01T08:11:35;12.68;;;4.78;;
79249;SDS011;68679;51.030;7.584;2023-06-01T08:14:00;10.57;;;6.45;;
79249;SDS011;68679;51.030;7.584;2023-06-01T08:16:28;11.48;;;6.90;;
79249;SDS011;68679;51.030;7.584;2023-06-01T08:18:54;11.45;;;6.60;;
79249;SDS011;68679;51.030;7.584;2023-06-01T08:21:21;12.02;;;6.55;;
79249;SDS011;68679;51.030;7.584;2023-06-01T08:23:47;9.10;;;5.45;;
79249;SDS011;68679;51.030;7.584;2023-06-01T08:26:12;11.97;;;5.90;;
79249;SDS011;68679;51.030;7.584;2023-06-01T08:28:37;12.43;;;5.90;;
79249;SDS011;68679;51.030;7.584;2023-06-01T08:31:03;10.82;;;7.18;;
79249;SDS011;68679;51.030;7.584;2023-06-01T08:33:35;15.10;;;6.57;;
79249;SDS011;68679;51.030;7.584;2023-06-01T08:36:03;14.17;;;8.37;;
79249;SDS011;68679;51.030;7.584;2023-06-01T08:38:44;12.02;;;6.85;;
79249;SDS011;68679;51.030;7.584;2023-06-01T08:44:15;13.15;;;6.18;;
79249;SDS011;68679;51.030;7.584;2023-06-01T08:46:49;8.23;;;5.53;;
79249;SDS011;68679;51.030;7.584;2023-06-01T08:49:17;13.30;;;7.10;;
79249;SDS011;68679;51.030;7.584;2023-06-01T08:51:52;16.13;;;7.43;;
79249;SDS011;68679;51.030;7.584;2023-06-01T08:54:25;10.60;;;6.85;;
79249;SDS011;68679;51.030;7.584;2023-06-01T08:56:51;11.02;;;6.03;;
79249;SDS011;68679;51.030;7.584;2023-06-01T08:59:16;10.77;;;6.47;;
79249;SDS011;68679;51.030;7.584;2023-06-01T09:01:42;10.85;;;5.57;;
79249;SDS011;68679;51.030;7.584;2023-06-01T09:04:08;10.23;;;6.43;;
79249;SDS011;68679;51.030;7.584;2023-06-01T09:06:34;9.32;;;5.75;;
79249;SDS011;68679;51.030;7.584;2023-06-01T09:09:02;8.82;;;6.32;;
79249;SDS011;68679;51.030;7.584;2023-06-01T09:11:27;8.77;;;5.50;;
79249;SDS011;68679;51.030;7.584;2023-06-01T09:13:53;8.10;;;4.77;;
79249;SDS011;68679;51.030;7.584;2023-06-01T09:16:18;10.43;;;5.77;;
79249;SDS011;68679;51.030;7.584;2023-06-01T09:18:50;11.05;;;5.82;;
79249;SDS011;68679;51.030;7.584;2023-06-01T09:21:17;10.05;;;6.18;;
79249;SDS011;68679;51.030;7.584;2023-06-01T09:23:42;8.68;;;4.70;;
79249;SDS011;68679;51.030;7.584;2023-06-01T09:26:09;11.20;;;5.60;;
79249;SDS011;68679;51.030;7.584;2023-06-01T09:28:51;10.68;;;5.43;;
79249;SDS011;68679;51.030;7.584;2023-06-01T09:31:38;9.98;;;6.32;;
79249;SDS011;68679;51.030;7.584;2023-06-01T09:34:10;8.38;;;5.18;;
79249;SDS011;68679;51.030;7.584;2023-06-01T09:36:37;8.85;;;4.38;;
79249;SDS011;68679;51.030;7.584;2023-06-01T09:39:06;10.43;;;5.78;;
79249;SDS011;68679;51.030;7.584;2023-06-01T09:41:46;11.50;;;4.80;;
79249;SDS011;68679;51.030;7.584;2023-06-01T09:44:21;10.93;;;5.80;;
79249;SDS011;68679;51.030;7.584;2023-06-01T09:46:55;8.38;;;4.68;;
79249;SDS011;68679;51.030;7.584;2023-06-01T09:49:25;8.10;;;5.05;;
79249;SDS011;68679;51.030;7.584;2023-06-01T09:52:14;10.48;;;5.32;;
79249;SDS011;68679;51.030;7.584;2023-06-01T09:54:47;8.68;;;5.57;;
79249;SDS011;68679;51.030;7.584;2023-06-01T09:57:21;8.68;;;5.28;;
79249;SDS011;68679;51.030;7.584;2023-06-01T09:59:48;9.18;;;6.43;;
79249;SDS011;68679;51.030;7.584;2023-06-01T10:02:17;9.27;;;5.60;;
79249;SDS011;68679;51.030;7.584;2023-06-01T10:04:46;10.63;;;6.10;;
79249;SDS011;68679;51.030;7.584;2023-06-01T10:07:14;9.15;;;5.00;;
79249;SDS011;68679;51.030;7.584;2023-06-01T10:09:41;9.43;;;5.43;;
79249;SDS011;68679;51.030;7.584;2023-06-01T10:12:08;10.38;;;6.50;;
79249;SDS011;68679;51.030;7.584;2023-06-01T10:14:35;11.82;;;6.45;;
79249;SDS011;68679;51.030;7.584;2023-06-01T10:17:03;11.18;;;5.82;;
79249;SDS011;68679;51.030;7.584;2023-06-01T10:19:28;10.93;;;6.10;;
79249;SDS011;68679;51.030;7.584;2023-06-01T10:21:56;12.35;;;6.35;;
79249;SDS011;68679;51.030;7.584;2023-06-01T10:24:23;11.85;;;6.65;;
79249;SDS011;68679;51.030;7.584;2023-06-01T10:27:10;14.15;;;6.05;;
79249;SDS011;68679;51.030;7.584;2023-06-01T10:29:40;11.50;;;6.20;;
79249;SDS011;68679;51.030;7.584;2023-06-01T10:32:40;10.43;;;6.13;;
79249;SDS011;68679;51.030;7.584;2023-06-01T10:40:40;13.20;;;7.05;;
79249;SDS011;68679;51.030;7.584;2023-06-01T10:43:06;10.50;;;6.72;;
79249;SDS011;68679;51.030;7.584;2023-06-01T10:47:58;13.20;;;7.70;;
79249;SDS011;68679;51.030;7.584;2023-06-01T10:50:25;13.82;;;8.02;;
79249;SDS011;68679;51.030;7.584;2023-06-01T10:52:50;13.23;;;6.25;;
79249;SDS011;68679;51.030;7.584;2023-06-01T10:57:41;11.83;;;8.13;;
79249;SDS011;68679;51.030;7.584;2023-06-01T11:00:24;13.20;;;5.93;;
79249;SDS011;68679;51.030;7.584;2023-06-01T11:05:37;11.73;;;6.93;;
79249;SDS011;68679;51.030;7.584;2023-06-01T11:08:04;12.20;;;8.50;;
79249;SDS011;68679;51.030;7.584;2023-06-01T11:13:15;13.98;;;7.65;;
79249;SDS011;68679;51.030;7.584;2023-06-01T11:21:39;13.63;;;6.47;;
79249;SDS011;68679;51.030;7.584;2023-06-01T11:24:11;11.60;;;7.13;;
79249;SDS011;68679;51.030;7.584;2023-06-01T11:26:41;13.35;;;7.72;;
79249;SDS011;68679;51.030;7.584;2023-06-01T11:29:26;12.00;;;7.07;;
79249;SDS011;68679;51.030;7.584;2023-06-01T11:31:52;12.15;;;7.43;;
79249;SDS011;68679;51.030;7.584;2023-06-01T11:34:19;12.90;;;7.00;;
79249;SDS011;68679;51.030;7.584;2023-06-01T11:36:58;13.50;;;7.40;;
79249;SDS011;68679;51.030;7.584;2023-06-01T11:39:25;12.20;;;6.72;;
79249;SDS011;68679;51.030;7.584;2023-06-01T11:42:03;13.60;;;7.00;;
79249;SDS011;68679;51.030;7.584;2023-06-01T11:44:30;12.57;;;6.95;;
79249;SDS011;68679;51.030;7.584;2023-06-01T11:46:56;13.13;;;6.57;;
79249;SDS011;68679;51.030;7.584;2023-06-01T11:49:22;14.18;;;7.60;;
79249;SDS011;68679;51.030;7.584;2023-06-01T11:51:48;11.50;;;6.38;;
79249;SDS011;68679;51.030;7.584;2023-06-01T11:54:16;13.35;;;7.65;;
79249;SDS011;68679;51.030;7.584;2023-06-01T11:56:41;12.05;;;8.13;;
79249;SDS011;68679;51.030;7.584;2023-06-01T11:59:07;13.90;;;7.25;;
79249;SDS011;68679;51.030;7.584;2023-06-01T12:01:41;11.10;;;6.95;;
79249;SDS011;68679;51.030;7.584;2023-06-01T12:04:14;12.57;;;7.47;;
79249;SDS011;68679;51.030;7.584;2023-06-01T12:06:40;12.10;;;6.97;;
79249;SDS011;68679;51.030;7.584;2023-06-01T12:09:05;12.90;;;6.95;;
79249;SDS011;68679;51.030;7.584;2023-06-01T12:11:32;12.00;;;6.60;;
79249;SDS011;68679;51.030;7.584;2023-06-01T12:13:58;14.80;;;6.78;;
79249;SDS011;68679;51.030;7.584;2023-06-01T12:16:24;14.55;;;7.88;;
79249;SDS011;68679;51.030;7.584;2023-06-01T12:19:13;11.95;;;6.82;;
79249;SDS011;68679;51.030;7.584;2023-06-01T12:21:38;12.87;;;7.60;;
79249;SDS011;68679;51.030;7.584;2023-06-01T12:24:04;14.43;;;7.32;;
79249;SDS011;68679;51.030;7.584;2023-06-01T12:26:36;11.60;;;6.90;;
79249;SDS011;68679;51.030;7.584;2023-06-01T12:29:02;14.30;;;8.30;;
79249;SDS011;68679;51.030;7.584;2023-06-01T12:31:27;11.87;;;7.53;;
79249;SDS011;68679;51.030;7.584;2023-06-01T12:33:53;14.20;;;6.43;;
79249;SDS011;68679;51.030;7.584;2023-06-01T12:36:34;15.02;;;7.10;;
79249;SDS011;68679;51.030;7.584;2023-06-01T12:39:01;12.13;;;8.27;;
79249;SDS011;68679;51.030;7.584;2023-06-01T12:41:29;14.98;;;8.15;;
79249;SDS011;68679;51.030;7.584;2023-06-01T12:43:54;12.90;;;7.72;;
79249;SDS011;68679;51.030;7.584;2023-06-01T12:48:47;15.57;;;7.85;;
79249;SDS011;68679;51.030;7.584;2023-06-01T12:51:14;14.73;;;8.23;;
79249;SDS011;68679;51.030;7.584;2023-06-01T12:53:40;13.98;;;8.65;;
79249;SDS011;68679;51.030;7.584;2023-06-01T12:56:07;15.75;;;7.47;;
79249;SDS011;68679;51.030;7.584;2023-06-01T12:58:32;15.20;;;8.38;;
79249;SDS011;68679;51.030;7.584;2023-06-01T13:00:58;15.70;;;8.00;;
79249;SDS011;68679;51.030;7.584;2023-06-01T13:03:23;16.63;;;10.90;;
79249;SDS011;68679;51.030;7.584;2023-06-01T13:05:49;16.08;;;9.82;;
79249;SDS011;68679;51.030;7.584;2023-06-01T13:08:16;14.13;;;8.68;;
79249;SDS011;68679;51.030;7.584;2023-06-01T13:10:41;12.27;;;7.80;;
79249;SDS011;68679;51.030;7.584;2023-06-01T13:13:07;15.07;;;8.88;;
79249;SDS011;68679;51.030;7.584;2023-06-01T13:15:33;13.77;;;8.73;;
79249;SDS011;68679;51.030;7.584;2023-06-01T13:17:59;13.50;;;8.20;;
79249;SDS011;68679;51.030;7.584;2023-06-01T13:20:24;14.67;;;8.10;;
79249;SDS011;68679;51.030;7.584;2023-06-01T13:22:49;15.20;;;7.10;;
79249;SDS011;68679;51.030;7.584;2023-06-01T13:25:14;17.43;;;8.43;;
79249;SDS011;68679;51.030;7.584;2023-06-01T13:27:40;15.93;;;8.75;;
79249;SDS011;68679;51.030;7.584;2023-06-01T13:30:05;14.13;;;8.38;;
79249;SDS011;68679;51.030;7.584;2023-06-01T13:32:32;14.05;;;8.20;;
79249;SDS011;68679;51.030;7.584;2023-06-01T13:34:58;14.48;;;9.02;;
79249;SDS011;68679;51.030;7.584;2023-06-01T13:37:23;13.57;;;8.57;;
79249;SDS011;68679;51.030;7.584;2023-06-01T13:39:48;13.03;;;7.63;;
79249;SDS011;68679;51.030;7.584;2023-06-01T13:42:14;14.18;;;8.25;;
79249;SDS011;68679;51.030;7.584;2023-06-01T13:44:41;13.52;;;8.35;;
79249;SDS011;68679;51.030;7.584;2023-06-01T13:49:36;12.93;;;6.72;;
79249;SDS011;68679;51.030;7.584;2023-06-01T13:52:01;14.70;;;7.73;;
79249;SDS011;68679;51.030;7.584;2023-06-01T13:54:26;17.73;;;9.80;;
79249;SDS011;68679;51.030;7.584;2023-06-01T13:56:51;15.30;;;7.83;;
79249;SDS011;68679;51.030;7.584;2023-06-01T13:59:17;17.57;;;8.53;;
79249;SDS011;68679;51.030;7.584;2023-06-01T14:01:42;14.52;;;9.02;;
79249;SDS011;68679;51.030;7.584;2023-06-01T14:04:07;19.70;;;8.27;;
79249;SDS011;68679;51.030;7.584;2023-06-01T14:06:33;12.87;;;7.13;;
79249;SDS011;68679;51.030;7.584;2023-06-01T14:08:59;12.90;;;8.02;;
79249;SDS011;68679;51.030;7.584;2023-06-01T14:11:24;15.15;;;7.53;;
79249;SDS011;68679;51.030;7.584;2023-06-01T14:13:50;15.48;;;8.77;;
79249;SDS011;68679;51.030;7.584;2023-06-01T14:16:15;17.63;;;7.80;;
79249;SDS011;68679;51.030;7.584;2023-06-01T14:18:41;16.70;;;8.50;;
79249;SDS011;68679;51.030;7.584;2023-06-01T14:21:06;17.50;;;9.57;;
79249;SDS011;68679;51.030;7.584;2023-06-01T14:23:31;15.18;;;8.27;;
79249;SDS011;68679;51.030;7.584;2023-06-01T14:25:57;15.57;;;7.82;;
79249;SDS011;68679;51.030;7.584;2023-06-01T14:28:22;16.13;;;8.77;;
79249;SDS011;68679;51.030;7.584;2023-06-01T14:30:48;12.52;;;6.88;;
79249;SDS011;68679;51.030;7.584;2023-06-01T14:33:13;21.60;;;9.13;;
79249;SDS011;68679;51.030;7.584;2023-06-01T14:35:38;12.73;;;8.07;;
79249;SDS011;68679;51.030;7.584;2023-06-01T14:38:04;14.77;;;7.97;;
79249;SDS011;68679;51.030;7.584;2023-06-01T14:40:29;14.93;;;8.23;;
79249;SDS011;68679;51.030;7.584;2023-06-01T14:42:54;15.02;;;8.30;;
79249;SDS011;68679;51.030;7.584;2023-06-01T14:45:19;11.70;;;6.83;;
79249;SDS011;68679;51.030;7.584;2023-06-01T14:47:46;12.10;;;7.75;;
79249;SDS011;68679;51.030;7.584;2023-06-01T14:50:12;13.65;;;8.07;;
79249;SDS011;68679;51.030;7.584;2023-06-01T14:52:37;12.93;;;7.65;;
79249;SDS011;68679;51.030;7.584;2023-06-01T14:55:03;12.90;;;7.70;;
79249;SDS011;68679;51.030;7.584;2023-06-01T14:57:28;15.05;;;7.43;;
79249;SDS011;68679;51.030;7.584;2023-06-01T14:59:54;10.53;;;6.37;;
79249;SDS011;68679;51.030;7.584;2023-06-01T15:02:19;11.50;;;7.47;;
79249;SDS011;68679;51.030;7.584;2023-06-01T15:04:44;12.20;;;6.88;;
79249;SDS011;68679;51.030;7.584;2023-06-01T15:07:10;11.30;;;6.85;;
79249;SDS011;68679;51.030;7.584;2023-06-01T15:09:35;11.75;;;7.32;;
79249;SDS011;68679;51.030;7.584;2023-06-01T15:12:01;13.35;;;7.50;;
79249;SDS011;68679;51.030;7.584;2023-06-01T15:14:27;10.45;;;7.25;;
79249;SDS011;68679;51.030;7.584;2023-06-01T15:16:52;13.20;;;7.28;;
79249;SDS011;68679;51.030;7.584;2023-06-01T15:19:17;12.23;;;8.00;;
79249;SDS011;68679;51.030;7.584;2023-06-01T15:21:43;11.07;;;7.30;;
79249;SDS011;68679;51.030;7.584;2023-06-01T15:24:08;13.53;;;8.17;;